Meredith, CO (81642)

7:22 AM MST on December 25, 2014 (GMT -0700)
MesoWest CHAPMAN TUNNEL CO US SNOTEL | Change Station
CLOSE
Current Station
Personal Weather Station
Location: Meredith, CO
Elevation: 10111 ft
Nearby Weather Stations
Active Advisory: Winter Weather Advisory

Elev 10111 ft 39.25 °N, 106.62 °W | Updated 4 days ago

Overcast
Overcast
27 °F
Feels Like 18 °F
N
12
Wind Variable Wind from WSW
Gusts 18 mph

Today
High -- | Low -- °F
--% Chance of Precip.
Yesterday
High -- | Low -- °F
Precip. -- in
7:24 AM 4:49 PM
Waxing Crescent, 16% visible
Pressure 29.51 in
Visibility 3.0 miles
Clouds Mostly Cloudy 2100 ft
Overcast 2900 ft
Windchill 18 °F
Dew Point 16 °F
Humidity 63%
Rainfall 0.00 in
Snow Depth Not available.
UV 0 out of 12
Pollen .10 out of 12
Air Quality Not available.
Flu Activity Not available.
METAR KASE 251353Z 00000KT 3SM -SN BR BKN021 OVC029 M05/M07 A2949 RMK AO2 SLP992 P0000 T10501067

More Conditions Fewer Conditions

Pressure 29.51 in
Visibility 3.0 miles
Clouds Mostly Cloudy 2100 ft
Overcast 2900 ft
Windchill 18 °F
Dew Point 16 °F
Humidity 63%
Rainfall 0.00 in
Snow Depth Not available.
UV 0 out of 12
Pollen .10 out of 12
Air Quality Not available.
Flu Activity Not available.
METAR KASE 251353Z 00000KT 3SM -SN BR BKN021 OVC029 M05/M07 A2949 RMK AO2 SLP992 P0000 T10501067

More Conditions Fewer Conditions

10-Day Weather Forecast

Almanac

Astronomy

Dec. 25, 2014 Rise Set
Actual Time
Civil Twilight
Nautical Twilight
Astronomical Twilight
Moon
Length of Visible Light
Length of Day
Tomorrow will be .
, % of the Moon is Illuminated

Today's Extremes

State Highs State Lows

Community

WunderPhotos

Upload Photos

1,780,276 photos uploaded!

WunderBlogs® & News

Nearby

Air Quality

  Air Quality AQ Index Pollutant
Not available.

Snow Depth

Station Depth Elevation

Earthquake Activity

City Distance Mag. Time & Date
Minimum magnitude displayed is 2.5.

Coastal Water Temperatures

Place Temperature

Nearby Weather Stations